Time;durP1;ratioP1;P1;durP2;ratioP2;P2;SDS_P1;SDS_P2;PMS_P1;PMS_P2;Temp;Humidity;BMP_temperature;BMP_pressure;BME280_temperature;BME280_humidity;BME280_pressure;Samples;Min_cycle;Max_cycle;Signal;HPM_P1;HPM_P2
2022/05/02 00:00:22;;;;;;;13.98;7.63;;;;;;;18.42;35.55;101815.91;5055843;28;20047;-67
2022/05/02 00:02:47;;;;;;;14.85;7.72;;;;;;;18.43;35.50;101811.31;5054883;28;20017;-67
2022/05/02 00:05:13;;;;;;;12.77;7.55;;;;;;;18.42;35.35;101815.06;5054663;28;20045;-67
2022/05/02 00:07:39;;;;;;;15.00;7.68;;;;;;;18.43;35.18;101805.88;5055104;28;20442;-67
2022/05/02 00:10:06;;;;;;;13.85;7.72;;;;;;;18.43;35.68;101811.31;5054963;28;20466;-67
2022/05/02 00:12:31;;;;;;;14.45;7.00;;;;;;;18.42;35.64;101806.91;5036880;28;20025;-67
2022/05/02 00:14:57;;;;;;;15.52;7.78;;;;;;;18.42;36.07;101805.06;5054567;28;20028;-67
2022/05/02 00:20:36;;;;;;;13.85;7.53;;;;;;;18.40;35.54;101800.78;4954375;29;20031;-67
2022/05/02 00:23:03;;;;;;;11.57;6.40;;;;;;;18.38;36.67;101808.22;4954472;29;20035;-67
2022/05/02 00:25:29;;;;;;;11.65;6.72;;;;;;;18.36;35.89;101797.53;4954775;29;20058;-68
2022/05/02 00:27:55;;;;;;;11.45;7.13;;;;;;;18.36;36.69;101804.81;4954509;29;20513;-67
2022/05/02 00:30:21;;;;;;;17.98;8.45;;;;;;;18.35;36.25;101793.13;4953735;29;20046;-67
2022/05/02 00:32:46;;;;;;;10.25;6.90;;;;;;;18.34;36.67;101796.00;4953615;28;20505;-67
2022/05/02 00:35:12;;;;;;;16.45;7.38;;;;;;;18.31;37.09;101785.44;4954349;29;20023;-67
2022/05/02 00:37:39;;;;;;;13.98;7.40;;;;;;;18.30;36.48;101794.59;4954486;29;20083;-66
2022/05/02 00:40:09;;;;;;;12.02;6.75;;;;;;;18.28;36.86;101786.63;4954263;29;20078;-67
2022/05/02 00:42:34;;;;;;;19.48;7.28;;;;;;;18.28;36.59;101786.63;4954489;29;20520;-66
2022/05/02 00:45:00;;;;;;;11.73;7.90;;;;;;;18.27;36.78;101784.91;4954378;29;20094;-68
2022/05/02 00:47:25;;;;;;;16.23;7.47;;;;;;;18.27;37.80;101784.03;4954264;29;20027;-67
2022/05/02 00:49:51;;;;;;;17.40;7.80;;;;;;;18.26;36.08;101783.19;4953865;29;20027;-67
2022/05/02 00:52:18;;;;;;;12.45;6.93;;;;;;;18.21;37.31;101779.25;5049619;28;20037;-67
2022/05/02 00:54:44;;;;;;;13.18;7.55;;;;;;;18.22;37.55;101775.53;5053726;28;20017;-67
2022/05/02 00:57:15;;;;;;;13.15;7.43;;;;;;;18.20;36.52;101777.56;5054021;28;20071;-67
2022/05/02 00:59:41;;;;;;;11.65;7.18;;;;;;;18.19;36.71;101781.25;5054118;28;20437;-67
2022/05/02 01:02:08;;;;;;;12.32;7.32;;;;;;;18.17;37.74;101777.88;5053966;28;20024;-68
2022/05/02 01:04:34;;;;;;;14.40;8.23;;;;;;;18.14;37.90;101772.75;5053725;28;20017;-67
2022/05/02 01:07:09;;;;;;;16.40;7.47;;;;;;;18.10;37.39;101776.75;5053736;28;20028;-67
2022/05/02 01:09:45;;;;;;;17.55;8.60;;;;;;;18.09;37.13;101778.63;5035896;28;20482;-68
2022/05/02 01:12:22;;;;;;;13.38;8.00;;;;;;;18.07;37.20;101777.06;5053782;28;20021;-66
2022/05/02 01:14:50;;;;;;;18.35;7.57;;;;;;;18.06;37.66;101770.81;5053648;28;20075;-67
2022/05/02 01:17:15;;;;;;;16.63;8.00;;;;;;;18.02;37.62;101763.97;5035311;28;20021;-68
2022/05/02 01:19:42;;;;;;;14.77;7.13;;;;;;;17.97;37.57;101767.16;5053596;28;20029;-67
2022/05/02 01:22:08;;;;;;;14.07;7.45;;;;;;;17.95;37.78;101769.16;5053445;28;20020;-67
2022/05/02 01:24:38;;;;;;;14.10;8.07;;;;;;;17.92;37.37;101766.75;5035682;28;20493;-67
2022/05/02 01:27:05;;;;;;;15.88;8.05;;;;;;;17.89;37.00;101775.22;5054106;28;20057;-67
2022/05/02 01:29:32;;;;;;;14.55;8.10;;;;;;;17.84;37.47;101774.81;5053729;28;20032;-67
2022/05/02 01:31:58;;;;;;;18.85;8.10;;;;;;;17.79;37.49;101769.00;5053655;28;20102;-67
2022/05/02 01:34:23;;;;;;;13.90;8.18;;;;;;;17.75;38.42;101772.16;5023953;28;20523;-67
2022/05/02 01:36:49;;;;;;;14.25;8.20;;;;;;;17.70;38.55;101772.59;5013813;28;20028;-67
2022/05/02 01:39:14;;;;;;;15.45;7.75;;;;;;;17.64;37.99;101770.53;5013898;28;20044;-67
2022/05/02 01:41:40;;;;;;;15.02;7.97;;;;;;;17.59;37.58;101772.81;5029113;28;20507;-67
2022/05/02 01:44:05;;;;;;;13.60;7.97;;;;;;;17.56;38.40;101772.28;5029817;28;20080;-67
2022/05/02 01:46:31;;;;;;;15.80;7.15;;;;;;;17.50;37.77;101770.16;5017622;28;20033;-66
2022/05/02 01:48:57;;;;;;;15.82;8.43;;;;;;;17.44;38.42;101758.06;5017545;28;20022;-67
2022/05/02 01:51:22;;;;;;;13.20;8.52;;;;;;;17.38;37.27;101758.66;5017443;28;20101;-68
2022/05/02 01:53:48;;;;;;;16.40;8.63;;;;;;;17.32;38.43;101757.41;5017387;28;20117;-68
2022/05/02 01:56:13;;;;;;;13.18;8.23;;;;;;;17.26;38.53;101765.25;5017217;28;20100;-68
2022/05/02 01:58:39;;;;;;;12.30;7.55;;;;;;;17.20;38.72;101760.44;5057256;28;20025;-67
2022/05/02 02:01:04;;;;;;;13.20;8.27;;;;;;;17.16;38.85;101756.34;5057125;28;20582;-68
2022/05/02 02:03:29;;;;;;;12.25;7.65;;;;;;;17.10;37.42;101760.50;5056808;28;20017;-67
2022/05/02 02:05:55;;;;;;;16.83;8.88;;;;;;;17.05;37.71;101756.53;5057279;28;20036;-67
2022/05/02 02:08:32;;;;;;;12.38;7.53;;;;;;;17.02;38.69;101751.41;5056979;28;20104;-67
2022/05/02 02:11:03;;;;;;;13.27;7.55;;;;;;;16.98;39.15;101752.69;5057012;28;20017;-67
2022/05/02 02:13:28;;;;;;;13.45;7.70;;;;;;;16.95;37.47;101750.28;5056508;28;20371;-67
2022/05/02 02:15:54;;;;;;;12.48;7.80;;;;;;;16.92;37.88;101756.00;5057209;28;20029;-67
2022/05/02 02:18:20;;;;;;;13.02;7.43;;;;;;;16.85;38.34;101745.78;5056805;28;20029;-68
2022/05/02 02:20:46;;;;;;;14.82;8.27;;;;;;;16.81;38.93;101755.16;5056551;28;20044;-67
2022/05/02 02:23:16;;;;;;;13.90;7.63;;;;;;;16.74;38.88;101747.78;5038539;28;20056;-67
2022/05/02 02:25:42;;;;;;;18.25;8.52;;;;;;;16.68;38.88;101742.97;5056488;28;20059;-67
2022/05/02 02:28:07;;;;;;;13.07;7.47;;;;;;;16.64;37.71;101742.41;5038493;28;20036;-67
2022/05/02 02:30:33;;;;;;;14.75;8.23;;;;;;;16.60;38.91;101746.41;5038787;28;20059;-67
2022/05/02 02:32:59;;;;;;;16.13;8.25;;;;;;;16.57;39.46;101746.69;5056018;28;20019;-67
2022/05/02 02:35:25;;;;;;;12.93;7.95;;;;;;;16.53;37.97;101742.56;5056200;28;20024;-67
2022/05/02 02:37:50;;;;;;;19.60;7.43;;;;;;;16.50;39.02;101739.28;5038227;28;20044;-66
2022/05/02 02:40:16;;;;;;;12.63;7.78;;;;;;;16.44;37.92;101743.44;5048075;28;20057;-67
2022/05/02 02:42:42;;;;;;;21.50;9.23;;;;;;;16.38;39.59;101730.47;5036202;28;20041;-67
2022/05/02 02:45:08;;;;;;;14.68;8.20;;;;;;;16.31;39.43;101741.00;5036243;28;20021;-66
2022/05/02 02:47:33;;;;;;;21.52;7.10;;;;;;;16.27;38.14;101738.75;5036029;28;20156;-67
2022/05/02 02:49:59;;;;;;;15.43;8.52;;;;;;;16.21;38.76;101740.16;5036093;28;20049;-67
2022/05/02 02:52:24;;;;;;;13.00;8.05;;;;;;;16.17;38.34;101740.56;5018605;28;20032;-67
2022/05/02 02:54:50;;;;;;;16.88;8.52;;;;;;;16.12;39.86;101734.75;5035896;28;20076;-66
2022/05/02 02:57:15;;;;;;;14.18;8.15;;;;;;;16.08;38.80;101733.34;5025828;28;20029;-67
2022/05/02 02:59:40;;;;;;;14.10;8.38;;;;;;;16.04;39.83;101731.91;5056056;28;20033;-67
2022/05/02 03:02:06;;;;;;;18.17;9.05;;;;;;;16.02;38.79;101723.09;5055799;28;20029;-68
2022/05/02 03:07:16;;;;;;;19.38;10.18;;;;;;;16.03;39.41;101724.78;5055953;28;20035;-67
2022/05/02 03:09:41;;;;;;;17.88;9.77;;;;;;;16.04;38.72;101716.56;5056089;28;20394;-67
2022/05/02 03:12:07;;;;;;;17.33;9.70;;;;;;;16.11;39.59;101716.81;5055901;28;20025;-67
2022/05/02 03:14:32;;;;;;;18.40;8.93;;;;;;;16.13;40.00;101720.25;5055499;28;20032;-67
2022/05/02 03:16:58;;;;;;;16.63;9.07;;;;;;;16.14;39.66;101716.53;5055488;28;20522;-67
2022/05/02 03:19:23;;;;;;;16.02;9.32;;;;;;;16.11;38.20;101717.69;5055587;28;20021;-68
2022/05/02 03:21:48;;;;;;;15.82;9.75;;;;;;;16.10;39.59;101715.13;5055401;28;20024;-67
2022/05/02 03:24:14;;;;;;;18.00;9.27;;;;;;;16.05;38.26;101712.84;5055630;28;20024;-67
2022/05/02 03:26:39;;;;;;;20.77;8.63;;;;;;;16.05;39.55;101709.31;5055964;28;20480;-67
2022/05/02 03:29:04;;;;;;;16.98;9.05;;;;;;;16.02;39.92;101720.41;5055236;28;20455;-67
2022/05/02 03:31:30;;;;;;;18.00;8.55;;;;;;;15.97;39.58;101715.41;5037364;28;20432;-67
2022/05/02 03:33:55;;;;;;;15.20;8.50;;;;;;;15.94;38.81;101722.97;5055192;28;20029;-68
2022/05/02 03:36:20;;;;;;;18.58;9.13;;;;;;;15.89;39.31;101722.50;5055056;28;20028;-67
2022/05/02 03:38:46;;;;;;;20.48;10.35;;;;;;;15.86;39.27;101717.38;5054946;28;20052;-67
2022/05/02 03:41:11;;;;;;;14.07;8.88;;;;;;;15.81;39.00;101719.66;5054786;28;20049;-68
2022/05/02 03:43:36;;;;;;;17.20;9.15;;;;;;;15.74;38.22;101722.91;5054801;28;20059;-67
2022/05/02 03:46:02;;;;;;;24.65;10.00;;;;;;;15.71;38.37;101725.94;5054895;28;20024;-67
2022/05/02 03:48:28;;;;;;;18.98;9.48;;;;;;;15.66;38.35;101727.34;5054867;28;20539;-67
2022/05/02 03:50:53;;;;;;;25.85;10.13;;;;;;;15.62;39.92;101732.16;5054565;28;20111;-67
2022/05/02 03:53:19;;;;;;;19.42;9.70;;;;;;;15.58;39.75;101729.88;5054775;28;20108;-67
2022/05/02 03:55:45;;;;;;;13.93;9.52;;;;;;;15.53;39.46;101726.72;5035279;28;20467;-67
2022/05/02 03:58:11;;;;;;;16.25;8.65;;;;;;;15.50;40.10;101733.28;5034691;28;20029;-66
2022/05/02 04:00:36;;;;;;;20.40;9.43;;;;;;;15.47;39.70;101729.97;5034626;28;20501;-67
2022/05/02 04:03:01;;;;;;;19.13;9.43;;;;;;;15.45;38.93;101735.50;5034550;28;20057;-67
2022/05/02 04:05:27;;;;;;;17.40;9.20;;;;;;;15.43;40.18;101737.50;5034775;28;20026;-67
2022/05/02 04:07:52;;;;;;;21.05;10.27;;;;;;;15.39;40.16;101736.06;5016716;28;20057;-67
2022/05/02 04:10:18;;;;;;;18.20;9.43;;;;;;;15.38;40.18;101738.91;5034527;28;20516;-67
2022/05/02 04:12:44;;;;;;;19.25;10.57;;;;;;;15.36;38.89;101730.06;5034489;28;20040;-67
2022/05/02 04:15:09;;;;;;;20.30;9.95;;;;;;;15.35;39.10;101729.25;5034308;28;20057;-67
2022/05/02 04:17:35;;;;;;;20.83;9.52;;;;;;;15.35;39.55;101734.63;5017477;28;20475;-66
2022/05/02 04:20:02;;;;;;;18.00;9.73;;;;;;;15.32;39.69;101729.50;5034364;28;20021;-67
2022/05/02 04:22:27;;;;;;;18.00;10.52;;;;;;;15.30;39.39;101736.88;5034475;28;20386;-67
2022/05/02 04:24:53;;;;;;;20.52;9.60;;;;;;;15.27;39.19;101728.22;5033907;28;20029;-67
2022/05/02 04:27:18;;;;;;;14.65;9.32;;;;;;;15.26;39.14;101727.34;5033750;28;20079;-67
2022/05/02 04:29:44;;;;;;;21.85;10.60;;;;;;;15.27;40.20;101726.34;5034050;28;20026;-67
2022/05/02 04:32:09;;;;;;;20.80;9.70;;;;;;;15.28;39.69;101724.50;5033899;28;20032;-67
2022/05/02 04:34:34;;;;;;;20.17;11.30;;;;;;;15.28;39.41;101729.91;5034081;28;20075;-67
2022/05/02 04:37:00;;;;;;;21.77;11.00;;;;;;;15.26;39.69;101729.19;5034007;28;20025;-67
2022/05/02 04:39:25;;;;;;;18.42;9.57;;;;;;;15.24;40.03;101729.34;5033602;28;20121;-67
2022/05/02 04:41:50;;;;;;;15.95;9.88;;;;;;;15.23;40.22;101735.72;5016043;28;20029;-67
2022/05/02 04:44:16;;;;;;;23.38;10.07;;;;;;;15.22;40.28;101730.44;5033854;28;20060;-67
2022/05/02 04:46:41;;;;;;;20.02;10.30;;;;;;;15.23;40.37;101735.72;5033727;28;20489;-67
2022/05/02 04:49:07;;;;;;;25.40;10.68;;;;;;;15.25;39.66;101731.03;5033783;28;20100;-67
2022/05/02 04:51:32;;;;;;;21.05;11.57;;;;;;;15.28;40.20;101728.06;5033784;28;20037;-66
2022/05/02 04:53:57;;;;;;;18.50;11.27;;;;;;;15.31;40.15;101733.19;5033599;28;20108;-67
2022/05/02 04:56:22;;;;;;;20.60;9.32;;;;;;;15.34;40.07;101738.31;5033724;28;20029;-68
2022/05/02 04:58:48;;;;;;;21.10;10.77;;;;;;;15.39;39.37;101736.06;5033401;28;20025;-67
2022/05/02 05:01:13;;;;;;;17.38;9.77;;;;;;;15.44;39.31;101739.19;5033445;28;20017;-67
2022/05/02 05:03:39;;;;;;;20.05;10.60;;;;;;;15.51;40.05;101739.53;5033297;28;20018;-67
2022/05/02 05:06:04;;;;;;;25.67;11.18;;;;;;;15.60;40.46;101736.88;5033806;28;20026;-68
2022/05/02 05:08:30;;;;;;;21.85;9.77;;;;;;;15.69;39.61;101733.31;5033484;28;20028;-67
2022/05/02 05:11:06;;;;;;;16.40;9.48;;;;;;;15.80;39.71;101739.59;5015787;28;20080;-68
2022/05/02 05:16:20;;;;;;;24.42;11.70;;;;;;;15.89;39.52;101736.03;5033747;28;20031;-67
2022/05/02 05:16:52;;;;;;;22.42;11.18;;;;;;;16.01;40.51;101734.91;5033207;28;20030;-67
2022/05/02 05:19:37;;;;;;;19.13;10.35;;;;;;;16.12;40.19;101735.63;5032803;28;20104;-67
2022/05/02 05:22:15;;;;;;;19.67;10.57;;;;;;;16.25;39.26;101736.16;5015539;28;20402;-67
2022/05/02 05:25:03;;;;;;;22.27;10.77;;;;;;;16.40;40.70;101736.59;5033347;28;20574;-67
2022/05/02 05:27:46;;;;;;;21.65;11.00;;;;;;;16.53;39.46;101739.84;5033330;28;20498;-67
2022/05/02 05:30:12;;;;;;;18.58;11.10;;;;;;;16.66;39.85;101729.59;5033288;28;20479;-66
2022/05/02 05:33:01;;;;;;;19.10;10.73;;;;;;;16.81;40.29;101730.81;5033305;28;20021;-67
2022/05/02 05:35:53;;;;;;;21.13;10.90;;;;;;;17.03;40.47;101726.06;5015834;28;20478;-67
2022/05/02 05:38:45;;;;;;;20.95;10.32;;;;;;;17.22;40.24;101725.97;5026278;28;20038;-67
2022/05/02 05:41:47;;;;;;;22.52;11.27;;;;;;;17.47;39.37;101725.25;5015556;28;20050;-66
2022/05/02 05:44:41;;;;;;;19.73;11.35;;;;;;;17.72;39.10;101723.69;5033135;28;20075;-67
2022/05/02 05:47:16;;;;;;;20.80;11.00;;;;;;;17.94;40.23;101718.69;5032374;28;20116;-68
2022/05/02 05:49:50;;;;;;;19.60;11.48;;;;;;;18.20;38.43;101723.31;5032070;28;20027;-67
2022/05/02 05:52:45;;;;;;;21.60;11.85;;;;;;;18.47;39.41;101720.47;5033225;28;20036;-67
2022/05/02 05:55:27;;;;;;;23.88;11.35;;;;;;;18.73;39.56;101728.66;4999383;28;20482;-67
2022/05/02 05:58:02;;;;;;;24.77;10.95;;;;;;;18.96;38.55;101727.94;5032139;28;20502;-68
2022/05/02 06:00:30;;;;;;;21.77;11.10;;;;;;;19.16;38.45;101729.41;5032308;28;20029;-67
2022/05/02 06:03:16;;;;;;;17.35;10.80;;;;;;;19.40;38.99;101725.13;5031980;28;20207;-67
2022/05/02 06:05:46;;;;;;;21.73;11.70;;;;;;;19.59;38.21;101727.56;5033303;28;20025;-67
2022/05/02 06:08:15;;;;;;;17.88;11.13;;;;;;;19.79;38.23;101725.41;5033323;28;20060;-67
2022/05/02 06:10:42;;;;;;;24.10;11.55;;;;;;;20.00;37.96;101726.63;5015741;28;20495;-67
2022/05/02 06:13:08;;;;;;;23.92;11.23;;;;;;;20.17;37.67;101722.88;5015442;28;20021;-66
2022/05/02 06:18:28;;;;;;;22.35;11.77;;;;;;;20.48;37.57;101720.38;5032691;28;20032;-67
2022/05/02 06:20:54;;;;;;;;;;;;;;;20.65;37.25;101724.78;5000080;28;20021;-66
2022/05/02 06:23:20;;;;;;;29.13;10.70;;;;;;;20.77;37.52;101722.53;5015311;28;19909;-67
2022/05/02 06:25:49;;;;;;;20.70;11.02;;;;;;;20.91;36.91;101729.97;5033112;28;20044;-67
2022/05/02 06:28:15;;;;;;;19.80;11.13;;;;;;;21.06;37.36;101722.78;5032976;28;20025;-67
2022/05/02 06:30:43;;;;;;;17.75;9.77;;;;;;;21.20;37.07;101724.81;5015192;28;20022;-67
2022/05/02 06:33:13;;;;;;;18.58;10.10;;;;;;;21.37;37.20;101731.91;5036568;28;20486;-67
2022/05/02 06:35:47;;;;;;;17.45;10.20;;;;;;;21.54;36.40;101726.34;5018813;28;20091;-67
2022/05/02 06:38:19;;;;;;;22.27;10.00;;;;;;;21.70;36.24;101737.16;5036690;28;20458;-67
2022/05/02 06:41:00;;;;;;;19.40;9.68;;;;;;;21.90;36.58;101733.00;5035328;28;20128;-67
2022/05/02 06:43:39;;;;;;;22.13;10.38;;;;;;;22.04;36.46;101721.28;5036482;28;20104;-67
2022/05/02 06:46:28;;;;;;;22.65;9.88;;;;;;;22.25;35.89;101721.44;5018482;28;20018;-66
2022/05/02 06:48:55;;;;;;;17.60;9.70;;;;;;;22.40;35.78;101725.09;5036367;28;20559;-67
2022/05/02 06:51:35;;;;;;;17.13;10.57;;;;;;;22.59;36.14;101723.72;5018945;28;20025;-67
2022/05/02 06:54:19;;;;;;;13.63;8.13;;;;;;;22.82;36.20;101734.59;5036263;28;20033;-67
2022/05/02 06:56:56;;;;;;;23.52;9.93;;;;;;;22.96;35.64;101736.50;5036214;28;20148;-67
2022/05/02 06:59:51;;;;;;;19.02;9.38;;;;;;;23.12;35.72;101726.22;5035006;28;20048;-67
2022/05/02 07:02:57;;;;;;;15.95;10.05;;;;;;;23.35;34.56;101737.06;5032606;28;20049;-67
2022/05/02 07:05:27;;;;;;;16.95;9.07;;;;;;;23.54;35.11;101728.28;5036152;28;20025;-66
2022/05/02 07:08:04;;;;;;;12.93;7.93;;;;;;;23.73;35.14;101721.34;5027346;28;20101;-67
2022/05/02 07:10:34;;;;;;;19.83;8.93;;;;;;;23.94;34.67;101731.47;5051021;28;20071;-67
2022/05/02 07:13:29;;;;;;;17.00;7.63;;;;;;;24.13;34.25;101719.91;5039742;28;20083;-67
2022/05/02 07:16:20;;;;;;;17.80;10.15;;;;;;;24.30;34.18;101724.09;5043577;28;20100;-67
2022/05/02 07:19:07;;;;;;;18.67;8.82;;;;;;;24.44;33.78;101723.16;5001849;28;20534;-67
2022/05/02 07:21:57;;;;;;;15.60;8.27;;;;;;;24.61;33.86;101719.09;5035679;28;20438;-67
2022/05/02 07:24:49;;;;;;;15.65;8.63;;;;;;;24.81;33.57;101714.63;5050485;28;20029;-67
2022/05/02 07:27:35;;;;;;;12.13;8.25;;;;;;;24.98;33.17;101719.78;5035625;28;20041;-68
2022/05/02 07:30:01;;;;;;;12.45;7.70;;;;;;;25.13;33.20;101710.38;5035683;28;20026;-67
2022/05/02 07:32:27;;;;;;;14.55;8.30;;;;;;;25.32;33.20;101706.06;5033597;28;20067;-67
2022/05/02 07:34:54;;;;;;;13.93;8.65;;;;;;;25.51;33.34;101718.19;5050290;28;20437;-67
2022/05/02 07:37:22;;;;;;;15.15;8.77;;;;;;;25.67;32.77;101715.06;5001203;28;20029;-67
2022/05/02 07:39:48;;;;;;;14.35;8.55;;;;;;;25.86;32.64;101715.13;5035383;28;20572;-67
2022/05/02 07:42:15;;;;;;;13.40;7.82;;;;;;;26.04;32.16;101718.13;5034796;28;20033;-67
2022/05/02 07:44:43;;;;;;;16.42;8.65;;;;;;;26.21;31.78;101706.78;5035150;28;20033;-67
2022/05/02 07:47:11;;;;;;;16.83;8.73;;;;;;;26.39;31.90;101712.47;5040561;28;20024;-67
2022/05/02 07:49:37;;;;;;;17.23;8.60;;;;;;;26.57;31.73;101709.94;5055122;28;20029;-67
2022/05/02 07:52:03;;;;;;;12.23;7.50;;;;;;;26.74;31.27;101713.94;5055033;28;20028;-67
2022/05/02 07:54:30;;;;;;;13.45;8.00;;;;;;;26.90;31.37;101718.19;5054702;28;20027;-67
2022/05/02 07:56:58;;;;;;;13.43;7.28;;;;;;;27.08;30.69;101721.94;5037014;28;20041;-67
2022/05/02 07:59:25;;;;;;;13.40;6.85;;;;;;;27.24;30.55;101715.13;5054973;28;20028;-67
2022/05/02 08:01:51;;;;;;;10.98;6.90;;;;;;;27.40;30.33;101713.78;5054728;28;20025;-67
2022/05/02 08:04:17;;;;;;;13.15;6.45;;;;;;;27.53;30.10;101702.75;5054546;28;20036;-67
2022/05/02 08:07:13;;;;;;;12.10;6.78;;;;;;;27.72;29.92;101713.66;5036770;28;20029;-67
2022/05/02 08:09:44;;;;;;;11.35;7.07;;;;;;;27.92;29.65;101718.22;5054579;28;20052;-67
2022/05/02 08:12:33;;;;;;;9.55;6.68;;;;;;;28.09;29.82;101705.63;5054308;28;20099;-67
2022/05/02 08:15:15;;;;;;;8.65;4.70;;;;;;;28.16;29.64;101715.53;5054396;28;20032;-67
2022/05/02 08:17:52;;;;;;;8.65;5.65;;;;;;;28.26;28.79;101710.38;5054711;28;20474;-67
2022/05/02 08:20:26;;;;;;;10.25;4.57;;;;;;;28.42;28.74;101713.66;5054448;28;20028;-67
2022/05/02 08:29:28;;;;;;;5.63;4.30;;;;;;;28.86;28.89;101705.19;5047420;28;20072;-67
2022/05/02 08:32:12;;;;;;;7.47;5.03;;;;;;;28.96;27.75;101705.50;5033864;28;20026;-67
2022/05/02 08:34:40;;;;;;;10.25;4.93;;;;;;;29.06;27.68;101711.34;5035545;28;20026;-67
2022/05/02 08:37:33;;;;;;;8.15;5.53;;;;;;;29.19;28.30;101693.78;5036555;28;20108;-66
2022/05/02 08:40:04;;;;;;;9.68;5.57;;;;;;;29.36;28.08;101700.41;5033420;28;20057;-67
2022/05/02 08:42:44;;;;;;;12.82;5.63;;;;;;;29.51;27.02;101706.34;5033728;28;20065;-66
2022/05/02 08:45:25;;;;;;;11.20;6.20;;;;;;;29.63;27.57;101695.34;5015874;28;20097;-67
2022/05/02 08:48:19;;;;;;;11.25;5.97;;;;;;;29.77;27.34;101691.34;5033556;28;20033;-67
2022/05/02 08:50:46;;;;;;;11.10;6.13;;;;;;;29.90;26.29;101697.53;5033690;28;20025;-67
2022/05/02 08:53:49;;;;;;;11.85;7.38;;;;;;;30.03;26.38;101691.00;5015763;28;20040;-66
2022/05/02 08:56:20;;;;;;;11.45;7.45;;;;;;;30.14;26.94;101689.31;5033517;28;20038;-66
2022/05/02 08:59:22;;;;;;;17.00;8.30;;;;;;;30.25;26.43;101689.34;5033449;28;20447;-66
2022/05/02 09:02:17;;;;;;;11.68;8.40;;;;;;;30.42;26.29;101695.06;5033449;28;20036;-67
2022/05/02 09:05:08;;;;;;;10.50;7.57;;;;;;;30.50;25.98;101687.25;5015702;28;20022;-67
2022/05/02 09:07:57;;;;;;;15.73;8.30;;;;;;;30.60;25.97;101688.59;5033443;28;20383;-67
2022/05/02 09:10:48;;;;;;;15.45;8.18;;;;;;;30.71;25.67;101693.28;5015677;28;20437;-67
2022/05/02 09:13:44;;;;;;;8.95;6.68;;;;;;;30.86;25.27;101685.31;5032708;28;20041;-67
2022/05/02 09:16:12;;;;;;;11.02;6.57;;;;;;;30.97;25.04;101687.25;5026723;28;20040;-68
2022/05/02 09:18:43;;;;;;;12.27;7.55;;;;;;;31.03;25.09;101675.22;5023038;28;20064;-67
2022/05/02 09:21:21;;;;;;;10.63;6.57;;;;;;;31.03;25.00;101683.50;5023070;28;20087;-67
2022/05/02 09:24:10;;;;;;;13.40;8.38;;;;;;;31.09;24.85;101688.09;5022924;28;20021;-67
2022/05/02 09:26:57;;;;;;;11.52;6.82;;;;;;;31.20;24.83;101678.91;5021346;28;20034;-67
2022/05/02 09:29:47;;;;;;;12.15;8.05;;;;;;;31.31;24.73;101678.03;5022842;28;20022;-67
2022/05/02 09:32:28;;;;;;;13.63;7.13;;;;;;;31.44;24.20;101683.28;5022944;28;20085;-68
2022/05/02 09:34:56;;;;;;;11.60;7.88;;;;;;;31.56;24.38;101684.13;5020526;28;20026;-67
2022/05/02 09:37:27;;;;;;;11.45;7.25;;;;;;;31.67;24.18;101680.47;5022172;28;20545;-68
2022/05/02 09:40:07;;;;;;;11.20;7.10;;;;;;;31.81;24.12;101677.38;5004936;28;20045;-68
2022/05/02 09:43:03;;;;;;;12.73;8.45;;;;;;;31.92;24.34;101682.00;5024586;28;20026;-68
2022/05/02 09:49:33;;;;;;;14.57;8.05;;;;;;;32.19;24.20;101664.50;4981150;28;20471;-67
2022/05/02 09:52:09;;;;;;;13.00;7.93;;;;;;;32.47;24.32;101662.75;5001729;28;20454;-67
2022/05/02 09:57:50;;;;;;;11.00;7.82;;;;;;;33.78;23.13;101662.59;5026246;28;20032;-67
2022/05/02 10:03:25;;;;;;;10.18;8.23;;;;;;;36.20;20.53;101657.56;5021957;28;20041;-68
2022/05/02 10:06:16;;;;;;;12.77;7.90;;;;;;;35.84;21.19;101658.63;5006576;28;20078;-68
2022/05/02 10:08:55;;;;;;;10.45;7.38;;;;;;;35.39;21.26;101654.59;5000941;28;20390;-68
2022/05/02 10:11:50;;;;;;;9.70;6.22;;;;;;;35.08;21.58;101653.63;5031971;28;20025;-68
2022/05/02 10:14:34;;;;;;;8.85;6.43;;;;;;;34.89;21.65;101657.13;4975579;28;20409;-67
2022/05/02 10:17:07;;;;;;;11.52;7.28;;;;;;;34.88;21.73;101647.94;5010865;28;20470;-66
2022/05/02 10:19:48;;;;;;;9.68;6.93;;;;;;;34.96;20.78;101647.41;5056965;28;20074;-67
2022/05/02 10:22:16;;;;;;;9.35;6.88;;;;;;;35.13;21.50;101638.03;5056501;28;20390;-68
2022/05/02 10:24:50;;;;;;;11.80;7.32;;;;;;;35.31;20.79;101645.91;5056473;28;20025;-67
2022/05/02 10:27:22;;;;;;;15.07;7.57;;;;;;;35.45;20.93;101638.72;5056377;28;20062;-67
2022/05/02 10:30:07;;;;;;;10.48;7.68;;;;;;;35.57;20.29;101642.94;5056437;28;20086;-66
2022/05/02 10:32:44;;;;;;;14.55;7.30;;;;;;;35.78;20.93;101643.00;5056094;28;20053;-66
2022/05/02 10:35:15;;;;;;;12.43;8.32;;;;;;;35.97;20.72;101639.38;5056429;28;20067;-66
2022/05/02 10:37:43;;;;;;;15.02;8.10;;;;;;;36.21;20.46;101637.72;5056570;28;20033;-66
2022/05/02 10:40:12;;;;;;;21.67;8.15;;;;;;;36.42;20.29;101640.50;5055799;28;20098;-67
2022/05/02 10:42:52;;;;;;;12.43;8.05;;;;;;;36.62;19.92;101629.34;5055984;28;20367;-66
2022/05/02 10:45:17;;;;;;;11.18;8.15;;;;;;;36.71;20.09;101622.06;5032230;28;20028;-67
2022/05/02 10:47:54;;;;;;;8.70;7.10;;;;;;;36.80;19.67;101625.09;5025393;28;20018;-67
2022/05/02 10:50:37;;;;;;;9.60;8.18;;;;;;;36.89;19.62;101615.81;5025452;28;20095;-67
2022/05/02 10:53:20;;;;;;;13.52;8.25;;;;;;;37.01;19.59;101624.75;5026482;28;20101;-67
2022/05/02 10:56:17;;;;;;;10.68;7.68;;;;;;;37.14;19.55;101618.53;5025722;28;20386;-67
2022/05/02 10:58:44;;;;;;;11.35;7.78;;;;;;;37.19;20.20;101615.72;5023555;28;20021;-67
2022/05/02 11:01:22;;;;;;;8.48;7.03;;;;;;;37.27;19.53;101606.72;5033546;28;20124;-67
2022/05/02 11:03:57;;;;;;;13.93;7.78;;;;;;;37.43;19.54;101604.72;5036041;28;20088;-67
2022/05/02 11:06:34;;;;;;;13.75;7.90;;;;;;;37.52;19.47;101602.16;5053932;28;20029;-67
2022/05/02 11:09:03;;;;;;;13.75;8.13;;;;;;;37.54;19.03;101600.72;5055702;28;20071;-67
2022/05/02 11:11:51;;;;;;;10.25;7.50;;;;;;;37.64;18.98;101597.00;5055857;28;20029;-67
2022/05/02 11:14:53;;;;;;;11.05;7.68;;;;;;;37.79;18.93;101597.75;5055615;28;20426;-66
2022/05/02 11:17:37;;;;;;;12.15;8.10;;;;;;;37.88;18.78;101598.00;5054660;28;20035;-66
2022/05/02 11:23:00;;;;;;;11.73;7.35;;;;;;;37.98;19.48;101597.06;5055293;28;20085;-67
2022/05/02 11:25:28;;;;;;;10.55;7.75;;;;;;;38.03;19.06;101588.59;5055657;28;20113;-67
2022/05/02 11:28:07;;;;;;;13.05;7.85;;;;;;;38.03;18.64;101586.66;5037657;28;20112;-67
2022/05/02 11:30:44;;;;;;;8.00;6.93;;;;;;;38.05;19.21;101587.22;5049883;28;20021;-67
2022/05/02 11:33:31;;;;;;;9.70;7.88;;;;;;;38.12;18.98;101590.50;5035091;28;20025;-67
2022/05/02 11:36:01;;;;;;;15.52;7.75;;;;;;;38.10;18.23;101586.31;5025470;28;20025;-66
2022/05/02 11:38:38;;;;;;;13.10;8.35;;;;;;;38.16;18.42;101580.38;5038014;28;20051;-66
2022/05/02 11:41:15;;;;;;;9.93;8.13;;;;;;;38.21;18.13;101577.53;5046912;28;20120;-67
2022/05/02 11:43:43;;;;;;;13.05;7.70;;;;;;;38.24;18.68;101582.53;5035344;28;20044;-67
2022/05/02 11:46:26;;;;;;;10.75;7.70;;;;;;;38.35;18.51;101589.72;5035115;28;20498;-67
2022/05/02 11:49:28;;;;;;;11.02;8.32;;;;;;;38.37;19.18;101583.81;5035073;28;20467;-67
2022/05/02 11:51:56;;;;;;;10.27;7.00;;;;;;;38.31;18.93;101571.81;5034856;28;20029;-66
2022/05/02 11:54:35;;;;;;;9.43;6.65;;;;;;;38.32;19.00;101573.53;5034484;28;20274;-67
2022/05/02 11:57:25;;;;;;;13.00;6.80;;;;;;;38.36;18.87;101577.38;5035085;28;20471;-67
2022/05/02 12:00:05;;;;;;;9.32;6.20;;;;;;;38.46;18.41;101573.66;5015363;28;20033;-67
2022/05/02 12:02:31;;;;;;;14.70;8.32;;;;;;;38.47;18.81;101576.13;5015108;28;20025;-67
2022/05/02 12:04:57;;;;;;;9.18;7.05;;;;;;;38.45;17.86;101572.81;5015028;28;20476;-66
2022/05/02 12:07:29;;;;;;;8.52;7.30;;;;;;;38.39;18.16;101573.16;5015111;28;20032;-65
2022/05/02 12:10:06;;;;;;;8.80;6.93;;;;;;;38.42;18.67;101573.41;5014939;28;20026;-67